createdAt,value
2022-10-28T00:03:10.723Z,7.88
2022-10-28T00:08:13.330Z,7.72
2022-10-28T00:13:15.149Z,7.75
2022-10-28T00:18:16.698Z,8.93
2022-10-28T00:23:18.313Z,7.72
2022-10-28T00:28:20.795Z,7.68
2022-10-28T00:33:22.426Z,7.97
2022-10-28T00:38:24.610Z,8.20
2022-10-28T00:43:39.485Z,8.05
2022-10-28T00:48:45.567Z,8.30
2022-10-28T00:53:48.430Z,8.30
2022-10-28T00:58:50.654Z,7.82
2022-10-28T01:03:54.373Z,8.40
2022-10-28T01:08:59.888Z,8.43
2022-10-28T01:14:25.043Z,8.70
2022-10-28T01:20:04.339Z,8.27
2022-10-28T01:25:47.638Z,8.23
2022-10-28T01:31:30.038Z,7.85
2022-10-28T01:36:47.375Z,8.52
2022-10-28T01:41:56.783Z,9.23
2022-10-28T01:47:10.818Z,8.07
2022-10-28T01:52:18.393Z,8.85
2022-10-28T01:57:23.922Z,8.10
2022-10-28T02:02:26.719Z,9.25
2022-10-28T02:07:28.353Z,8.52
2022-10-28T02:12:35.512Z,8.45
2022-10-28T02:18:11.885Z,8.15
2022-10-28T02:23:51.386Z,8.32
2022-10-28T02:29:05.942Z,8.45
2022-10-28T02:34:12.904Z,8.52
2022-10-28T02:39:17.306Z,8.50
2022-10-28T02:44:26.538Z,8.48
2022-10-28T02:49:31.083Z,9.00
2022-10-28T02:54:51.149Z,9.55
2022-10-28T03:00:06.551Z,9.60
2022-10-28T03:05:08.645Z,9.80
2022-10-28T03:10:10.458Z,9.18
2022-10-28T03:15:12.101Z,9.65
2022-10-28T03:20:13.810Z,10.30
2022-10-28T03:25:15.392Z,10.80
2022-10-28T03:30:18.536Z,10.07
2022-10-28T03:35:20.643Z,9.80
2022-10-28T03:40:22.263Z,9.80
2022-10-28T03:45:24.796Z,9.38
2022-10-28T03:50:26.925Z,8.65
2022-10-28T03:55:29.784Z,9.43
2022-10-28T04:00:32.261Z,10.10
2022-10-28T04:05:36.015Z,9.30
2022-10-28T04:10:37.857Z,8.45
2022-10-28T04:15:39.911Z,8.32
2022-10-28T04:20:41.521Z,7.68
2022-10-28T04:25:43.325Z,7.63
2022-10-28T04:30:48.003Z,7.82
2022-10-28T04:35:49.665Z,8.23
2022-10-28T04:40:51.363Z,8.02
2022-10-28T04:45:53.006Z,7.88
2022-10-28T04:50:57.383Z,7.70
2022-10-28T04:56:00.548Z,7.82
2022-10-28T05:01:09.445Z,7.95
2022-10-28T05:06:11.153Z,7.93
2022-10-28T05:11:13.626Z,8.15
2022-10-28T05:16:15.496Z,8.23
2022-10-28T05:21:17.091Z,7.45
2022-10-28T05:26:19.166Z,8.20
2022-10-28T05:31:20.982Z,11.32
2022-10-28T05:36:22.816Z,8.77
2022-10-28T05:41:25.449Z,8.88
2022-10-28T05:46:27.362Z,7.72
2022-10-28T05:51:29.177Z,7.43
2022-10-28T05:56:31.063Z,6.90
2022-10-28T06:01:32.718Z,6.57
2022-10-28T06:06:34.807Z,7.10
2022-10-28T06:11:35.072Z,7.45
2022-10-28T06:16:37.773Z,7.00
2022-10-28T06:21:40.050Z,7.20
2022-10-28T06:26:42.858Z,7.80
2022-10-28T06:31:44.716Z,8.57
2022-10-28T06:36:47.478Z,7.95
2022-10-28T06:41:49.132Z,7.43
2022-10-28T06:46:52.519Z,7.68
2022-10-28T06:51:54.441Z,7.50
2022-10-28T06:56:56.432Z,7.22
2022-10-28T07:01:59.407Z,7.43
2022-10-28T07:07:01.877Z,7.03
2022-10-28T07:12:05.065Z,6.53
2022-10-28T07:17:07.409Z,6.50
2022-10-28T07:22:09.009Z,6.45
2022-10-28T07:27:10.818Z,5.95
2022-10-28T07:32:12.896Z,6.25
2022-10-28T07:37:15.026Z,6.50
2022-10-28T07:42:16.843Z,7.38
2022-10-28T07:47:19.715Z,6.88
2022-10-28T07:52:21.535Z,6.82
2022-10-28T07:57:23.565Z,7.40
2022-10-28T08:02:26.115Z,6.43
2022-10-28T08:07:28.372Z,6.32
2022-10-28T08:12:30.788Z,6.22
2022-10-28T08:17:32.397Z,6.10
2022-10-28T08:22:34.062Z,5.82
2022-10-28T08:27:36.230Z,6.00
2022-10-28T08:32:38.020Z,5.65
2022-10-28T08:37:39.624Z,5.60
2022-10-28T08:42:52.167Z,6.18
2022-10-28T08:48:09.327Z,6.15
2022-10-28T08:53:19.824Z,5.47
2022-10-28T08:58:31.102Z,5.78
2022-10-28T09:03:39.237Z,6.25
2022-10-28T09:08:44.292Z,6.40
2022-10-28T09:14:13.988Z,6.03
2022-10-28T09:19:40.290Z,5.60
2022-10-28T09:25:02.776Z,6.07
2022-10-28T09:30:16.874Z,6.28
2022-10-28T09:35:23.634Z,5.68
2022-10-28T09:40:29.756Z,6.05
2022-10-28T09:45:36.264Z,6.10
2022-10-28T09:50:38.673Z,5.60
2022-10-28T09:55:40.451Z,5.25
2022-10-28T10:00:42.257Z,5.47
2022-10-28T10:05:50.603Z,4.95
2022-10-28T10:11:09.969Z,4.53
2022-10-28T10:16:18.186Z,3.83
2022-10-28T10:21:46.902Z,4.28
2022-10-28T10:26:48.704Z,4.10
2022-10-28T10:32:20.067Z,3.22
2022-10-28T10:37:22.827Z,2.80
2022-10-28T10:42:25.626Z,3.17
2022-10-28T10:47:27.619Z,3.13
2022-10-28T10:52:29.716Z,2.97
2022-10-28T10:57:32.840Z,2.60
2022-10-28T11:02:42.889Z,3.35
2022-10-28T11:07:48.708Z,2.25
2022-10-28T11:12:56.591Z,2.30
2022-10-28T11:18:17.200Z,2.35
2022-10-28T11:23:42.209Z,1.63
2022-10-28T11:29:14.019Z,2.00
2022-10-28T11:34:49.731Z,1.88
2022-10-28T11:40:03.626Z,2.00
2022-10-28T11:45:08.458Z,1.70
2022-10-28T11:55:44.266Z,1.88
2022-10-28T12:01:01.143Z,1.80
2022-10-28T12:06:12.450Z,1.40
2022-10-28T12:11:26.505Z,2.03
2022-10-28T12:16:51.978Z,1.60
2022-10-28T12:22:39.658Z,1.83
2022-10-28T12:27:45.161Z,1.70
2022-10-28T12:32:50.241Z,1.80
2022-10-28T12:37:59.216Z,1.60
2022-10-28T12:43:16.289Z,1.73
2022-10-28T12:48:42.638Z,1.60
2022-10-28T12:54:00.450Z,1.70
2022-10-28T12:59:14.873Z,1.48
2022-10-28T13:04:17.102Z,1.50
2022-10-28T13:09:48.332Z,1.70
2022-10-28T13:15:18.884Z,1.83
2022-10-28T13:20:26.316Z,1.63
2022-10-28T13:25:43.039Z,1.83
2022-10-28T13:30:57.238Z,2.00
2022-10-28T13:36:31.575Z,2.35
2022-10-28T13:41:44.690Z,2.15
2022-10-28T13:47:25.611Z,2.00
2022-10-28T13:52:27.225Z,2.03
2022-10-28T13:57:36.004Z,2.10
2022-10-28T14:03:04.802Z,1.95
2022-10-28T14:08:18.007Z,2.20
2022-10-28T14:13:22.544Z,2.30
2022-10-28T14:24:07.127Z,2.60
2022-10-28T14:29:27.524Z,2.30
2022-10-28T14:34:39.484Z,2.67
2022-10-28T14:39:50.366Z,2.78
2022-10-28T14:45:31.886Z,2.92
2022-10-28T14:50:42.541Z,2.28
2022-10-28T14:55:52.383Z,2.25
2022-10-28T15:01:04.360Z,2.63
2022-10-28T15:06:31.078Z,2.60
2022-10-28T15:11:34.037Z,2.88
2022-10-28T15:16:35.899Z,2.30
2022-10-28T15:21:37.793Z,2.90
2022-10-28T15:26:39.684Z,2.83
2022-10-28T15:32:04.810Z,2.88
2022-10-28T15:37:07.172Z,2.70
2022-10-28T15:42:47.372Z,2.85
2022-10-28T15:47:49.214Z,3.00
2022-10-28T15:52:54.300Z,2.92
2022-10-28T15:58:23.896Z,3.00
2022-10-28T16:03:27.148Z,3.92
2022-10-28T16:08:32.737Z,3.10
2022-10-28T16:13:38.301Z,3.55
2022-10-28T16:18:46.573Z,3.50
2022-10-28T16:23:52.520Z,4.03
2022-10-28T16:28:54.920Z,5.28
2022-10-28T16:33:58.479Z,6.32
2022-10-28T16:39:00.834Z,4.00
2022-10-28T16:44:02.574Z,7.68
2022-10-28T16:49:04.181Z,4.10
2022-10-28T16:54:05.841Z,3.20
2022-10-28T16:59:07.697Z,3.15
2022-10-28T17:04:10.513Z,3.38
2022-10-28T17:09:12.191Z,3.83
2022-10-28T17:14:15.317Z,3.83
2022-10-28T17:19:17.160Z,4.35
2022-10-28T17:24:20.595Z,5.88
2022-10-28T17:29:22.433Z,5.30
2022-10-28T17:34:24.026Z,7.10
2022-10-28T17:39:26.616Z,5.70
2022-10-28T17:44:29.613Z,5.18
2022-10-28T17:49:34.776Z,4.22
2022-10-28T17:54:38.305Z,4.80
2022-10-28T17:59:40.775Z,5.10
2022-10-28T18:04:45.467Z,6.28
2022-10-28T18:09:47.298Z,7.13
2022-10-28T18:14:51.209Z,5.85
2022-10-28T18:19:53.035Z,5.70
2022-10-28T18:24:57.328Z,4.88
2022-10-28T18:30:01.130Z,5.05
2022-10-28T18:35:03.893Z,5.15
2022-10-28T18:40:10.650Z,5.82
2022-10-28T18:45:13.638Z,6.32
2022-10-28T18:50:17.163Z,5.22
2022-10-28T18:55:21.832Z,6.70
2022-10-28T19:00:23.613Z,6.95
2022-10-28T19:05:26.302Z,6.25
2022-10-28T19:10:29.173Z,5.43
2022-10-28T19:15:32.378Z,7.85
2022-10-28T19:20:35.899Z,5.57
2022-10-28T19:25:39.415Z,6.38
2022-10-28T19:30:41.231Z,5.97
2022-10-28T19:35:42.966Z,5.63
2022-10-28T19:40:44.685Z,5.93
2022-10-28T19:45:46.881Z,5.50
2022-10-28T19:50:49.807Z,6.00
2022-10-28T19:55:59.014Z,5.65
2022-10-28T20:01:04.611Z,5.38
2022-10-28T20:06:10.169Z,5.22
2022-10-28T20:11:21.444Z,4.90
2022-10-28T20:16:30.573Z,6.60
2022-10-28T20:21:35.441Z,7.22
2022-10-28T20:26:40.515Z,5.82
2022-10-28T20:31:43.404Z,6.50
2022-10-28T20:36:45.606Z,8.07
2022-10-28T20:41:49.303Z,7.55
2022-10-28T20:46:52.549Z,6.22
2022-10-28T20:51:55.801Z,6.07
2022-10-28T20:56:58.161Z,5.82
2022-10-28T21:02:01.176Z,6.63
2022-10-28T21:07:08.689Z,5.82
2022-10-28T21:12:10.378Z,8.98
2022-10-28T21:17:12.378Z,7.57
2022-10-28T21:22:15.679Z,7.70
2022-10-28T21:27:18.346Z,9.18
2022-10-28T21:32:20.034Z,7.28
2022-10-28T21:37:22.978Z,7.60
2022-10-28T21:42:27.046Z,8.00
2022-10-28T21:47:29.042Z,8.32
2022-10-28T21:52:31.146Z,8.63
2022-10-28T21:57:34.031Z,8.18
2022-10-28T22:02:36.246Z,8.20
2022-10-28T22:07:39.300Z,6.72
2022-10-28T22:12:42.265Z,10.00
2022-10-28T22:17:45.832Z,7.45
2022-10-28T22:22:47.716Z,8.52
2022-10-28T22:27:50.894Z,9.27
2022-10-28T22:32:56.754Z,11.77
2022-10-28T22:38:00.057Z,11.10
2022-10-28T22:43:01.774Z,7.28
2022-10-28T22:48:03.945Z,7.20
2022-10-28T22:53:06.047Z,7.15
2022-10-28T22:58:07.785Z,7.72
2022-10-28T23:03:11.590Z,7.70
2022-10-28T23:08:16.491Z,7.20
2022-10-28T23:13:21.894Z,6.85
2022-10-28T23:18:31.655Z,7.10
2022-10-28T23:23:37.294Z,9.40
2022-10-28T23:28:41.222Z,7.70
2022-10-28T23:33:46.610Z,10.20
2022-10-28T23:38:49.630Z,8.20
2022-10-28T23:43:51.509Z,11.70
2022-10-28T23:48:53.436Z,9.20
2022-10-28T23:53:55.109Z,7.95
2022-10-28T23:58:59.101Z,6.53
